Main page
METAR-TAF:

METAR-TAF

Airports :

Cabo San Lucas International Airport

Cabo San Lucas, Mexico

latitude: 22-56-51N, longitude: 109-56-13W, elevation: 210 m

Current weather observation

The report was made 44 minutes ago, at 15:59 UTC
Wind 4 kt from the South
Temperature 27°C
Humidity 51%
Pressure 1015 hPa
Visibility: 16.1 km
Clear sky

METAR: MMSL 291559Z RTD 18004KT 10SM SKC 27/16 A2997

Time: 09:43 (16:43 UTC)

Forecast

The report was made 12 hours and 30 minutes ago, at 04:13 UTC
Forecast valid from 29 at 06 UTC to 30 at 06 UTC
Wind 8 kt from the West
Visibility: 10 km
Clear sky
From 29 at 1600 UTC
Wind 12 kt from the Southwest
Visibility: 10 km
Clear sky
From 30 at 0200 UTC
Wind 8 kt from the West/Northwest
Visibility: 10 km
Clear sky

TAF: MMSL 290413Z 2906/3006 28008KT P6SM SKC FM291600 23012KT P6SM SKC FM300200 30008KT P6SM SKC

Weather observations and forecasts of more than 4000 airports (METAR and TAF reports).

The available stations are represented by yellow and red dots on the map.

Hover mouse over dot to see the name of the station.

Then click to see weather observations and forecasts.

To change the map : click on the green buttons with a black cross to zoom in, on the green button with a dash to zoom out, or on the green arrows for adjacent maps.


METAR-TAF: